Aeroporto :
LOGIN :

Iscrizione | Disclaimer

   EN    FR    IT 

 










Sommario :    VFR   VFR Marginale   IFR   IFR Intensivo   IFR Molto Intensivo
Visibilità : 
Base nubi : 
>= 8 km
>= 3000ft
5 / 8 km
1000 / 3000 ft
1500m / 5 km
500 / 1000 ft
800 / 1500m
200 / 500 ft
< 800m
< 200 ft
Simboli :   Temporali  Nebbia  Neve Forte  Precipitazioni Forti  Vento > 20 kt
SIGMETs :   Varie  Temporali  Ghiacco  Turbolenza  Onda orograficha  Ceneri Vulcaniche






- Altitudine del aeroporto : 1247 ft
- Codice IATA : PRG


LKPR - Praha Ruzyne

ULTIMO METAR :
  • 051300Z VRB05KT CAVOK 23/08 Q1020 NOSIG

METARs OBSOLETI :
  • 051230Z 02006KT 330V060 CAVOK 23/09 Q1020 NOSIG
  • 051200Z VRB03KT CAVOK 23/09 Q1020 NOSIG
  • 051130Z VRB03KT CAVOK 22/08 Q1020 NOSIG
  • 051100Z 04005KT 330V090 CAVOK 21/08 Q1020 NOSIG
  • 051030Z 10005KT 060V140 9999 SCT048 20/09 Q1020 NOSIG
  • 051013Z 11005KT 070V140 9999 SCT044 21/10 Q1020 RMK REG QNH 1015

TAF TAF LKPR
Valido dal 05 a 12 ore il 06 a 18 ore UTC


051100Z 0512/0618 04006KT CAVOK
TEMPO 0521/0606 13006KT



MetMap, La meteo Aeronautica in un colpo d'occhio ! - Copyright ORBIFLY Dicembre 2007 - Disclaimer

ORBIFLY MET'MAP TEAM :

Programmazione e sviluppo : Alexandra Zaïnal
Concezione : Baudouin d'Aumeries
Aiuto per la programmazione : Marc-Olivier Méhu
Supporto tecnico e logistico : Manuel Goepfert
Aiuto per la traduzione : Arnaldo La Scala

Contatto : metmap@orbifly.com




FONTI E CREDITI :

   NOAA